Time;durP1;ratioP1;P1;durP2;ratioP2;P2;SDS_P1;SDS_P2;PMS_P1;PMS_P2;Temp;Humidity;BMP_temperature;BMP_pressure;BME280_temperature;BME280_humidity;BME280_pressure;Samples;Min_cycle;Max_cycle;Signal;HPM_P1;HPM_P2
2022/10/16 00:00:31;;;;;;;8.13;3.50;;;;;;;12.96;92.30;100954.03;6216597;23;20008;-64
2022/10/16 00:02:57;;;;;;;8.05;3.83;;;;;;;12.95;92.75;100948.75;6216255;23;20016;-63
2022/10/16 00:05:22;;;;;;;7.78;3.70;;;;;;;12.93;92.82;100956.72;6216080;23;20017;-63
2022/10/16 00:07:47;;;;;;;9.60;4.07;;;;;;;12.92;92.78;100941.66;6216644;23;20016;-65
2022/10/16 00:10:13;;;;;;;11.05;4.10;;;;;;;12.92;92.60;100939.00;6216186;23;20004;-64
2022/10/16 00:12:38;;;;;;;9.20;4.30;;;;;;;12.91;93.01;100939.00;6216049;23;20015;-64
2022/10/16 00:15:04;;;;;;;7.20;4.10;;;;;;;12.89;92.68;100941.66;6216086;23;20088;-64
2022/10/16 00:17:30;;;;;;;6.85;3.97;;;;;;;12.89;93.37;100946.97;6215921;23;20015;-64
2022/10/16 00:19:56;;;;;;;8.98;3.70;;;;;;;12.90;92.93;100946.09;6216215;23;20080;-64
2022/10/16 00:22:22;;;;;;;8.15;3.88;;;;;;;12.88;93.06;100945.19;6215630;23;20012;-64
2022/10/16 00:24:47;;;;;;;5.25;3.38;;;;;;;12.89;92.83;100952.28;6215786;23;20059;-63
2022/10/16 00:27:12;;;;;;;8.43;3.97;;;;;;;12.85;92.79;100946.94;6216128;23;20004;-63
2022/10/16 00:29:38;;;;;;;7.40;3.60;;;;;;;12.83;92.58;100946.06;6216037;23;20009;-63
2022/10/16 00:32:03;;;;;;;6.45;3.42;;;;;;;12.83;93.09;100951.38;6189452;23;20005;-64
2022/10/16 00:34:29;;;;;;;5.13;3.63;;;;;;;12.79;93.17;100951.34;6216187;23;20013;-64
2022/10/16 00:36:54;;;;;;;5.88;3.53;;;;;;;12.76;93.41;100943.41;6215985;23;20316;-63
2022/10/16 00:39:19;;;;;;;8.70;3.78;;;;;;;12.73;93.44;100938.06;6216540;23;20010;-64
2022/10/16 00:41:45;;;;;;;7.97;3.78;;;;;;;12.69;93.50;100936.28;6216739;23;20004;-63
2022/10/16 00:44:43;;;;;;;6.70;3.60;;;;;;;12.69;93.36;100948.66;6216739;23;20423;-65
2022/10/16 00:47:18;;;;;;;12.50;3.97;;;;;;;12.66;93.61;100946.00;6215642;23;20079;-64
2022/10/16 00:49:44;;;;;;;7.28;3.60;;;;;;;12.64;93.82;100950.41;6216213;23;20420;-63
2022/10/16 00:52:10;;;;;;;8.60;3.90;;;;;;;12.62;94.22;100957.47;6216119;23;20083;-62
2022/10/16 00:54:36;;;;;;;6.63;3.55;;;;;;;12.60;94.17;100949.53;6215914;23;20427;-64
2022/10/16 00:57:04;;;;;;;8.60;3.92;;;;;;;12.58;94.67;100956.56;6216172;23;20011;-64
2022/10/16 00:59:33;;;;;;;6.88;3.50;;;;;;;12.58;94.65;100956.56;6216175;23;20032;-64
2022/10/16 01:01:59;;;;;;;6.97;3.40;;;;;;;12.57;94.62;100951.25;6215750;23;20001;-64
2022/10/16 01:04:26;;;;;;;8.90;3.90;;;;;;;12.56;94.62;100946.84;6189294;23;20138;-63
2022/10/16 01:06:59;;;;;;;7.82;3.70;;;;;;;12.57;94.50;100953.91;6215514;23;20087;-63
2022/10/16 01:09:53;;;;;;;5.88;3.85;;;;;;;12.55;94.94;100945.97;6215848;23;20005;-64
2022/10/16 01:12:51;;;;;;;7.05;3.20;;;;;;;12.52;94.66;100944.19;6215713;23;20011;-64
2022/10/16 01:15:19;;;;;;;6.28;3.58;;;;;;;12.52;94.62;100938.00;6206984;23;20013;-64
2022/10/16 01:18:04;;;;;;;6.53;3.55;;;;;;;12.51;95.34;100942.41;6215377;23;20067;-63
2022/10/16 01:20:34;;;;;;;8.15;3.42;;;;;;;12.49;95.07;100948.56;6190465;23;20013;-65
2022/10/16 01:23:11;;;;;;;6.47;3.40;;;;;;;12.48;95.55;100942.38;6216075;23;20323;-64
2022/10/16 01:25:55;;;;;;;5.85;3.58;;;;;;;12.45;95.17;100946.78;6215673;23;20426;-64
2022/10/16 01:28:27;;;;;;;5.40;3.33;;;;;;;12.47;95.32;100953.00;6215706;23;20008;-63
2022/10/16 01:30:55;;;;;;;;;;;;;;;12.49;94.83;100953.88;6216155;23;20000;-64
2022/10/16 01:33:26;;;;;;;8.32;3.60;;;;;;;12.48;95.39;100944.16;6215590;23;19947;-63
2022/10/16 01:35:54;;;;;;;7.32;4.00;;;;;;;12.45;95.75;100954.72;6217760;23;20058;-64
2022/10/16 01:38:38;;;;;;;8.85;3.58;;;;;;;12.42;95.69;100944.13;6217944;23;20032;-65
2022/10/16 01:41:10;;;;;;;7.10;3.20;;;;;;;12.45;95.85;100946.78;6217806;23;20019;-64
2022/10/16 01:43:57;;;;;;;7.30;3.60;;;;;;;12.45;96.37;100949.44;6216166;23;20005;-64
2022/10/16 01:46:24;;;;;;;7.65;3.30;;;;;;;12.46;96.13;100959.16;6217743;23;20011;-63
2022/10/16 01:48:52;;;;;;;6.50;3.22;;;;;;;12.49;96.42;100961.81;6217406;23;20009;-63
2022/10/16 01:51:19;;;;;;;6.25;3.15;;;;;;;12.52;96.05;100945.94;6217550;23;20331;-64
2022/10/16 01:53:52;;;;;;;8.27;3.15;;;;;;;12.54;95.93;100947.72;6217872;23;20005;-63
2022/10/16 01:56:22;;;;;;;6.72;3.05;;;;;;;12.54;96.09;100933.56;6217629;23;20020;-64
2022/10/16 01:58:54;;;;;;;5.38;3.00;;;;;;;12.55;95.70;100932.72;6217592;23;20347;-63
2022/10/16 02:01:22;;;;;;;5.75;3.10;;;;;;;12.57;95.51;100948.63;6217592;23;20422;-64
2022/10/16 02:03:53;;;;;;;6.35;3.25;;;;;;;12.54;95.75;100952.13;6217415;23;20438;-63
2022/10/16 02:06:19;;;;;;;5.57;3.25;;;;;;;12.53;95.51;100945.06;6217239;23;20060;-64
2022/10/16 02:08:45;;;;;;;5.25;3.28;;;;;;;12.51;95.68;100942.41;6190718;23;20008;-63
2022/10/16 02:11:11;;;;;;;5.32;3.03;;;;;;;12.53;95.59;100958.31;6217782;23;20016;-65
2022/10/16 02:13:50;;;;;;;6.97;3.28;;;;;;;12.52;95.42;100956.56;6217570;23;20004;-65
2022/10/16 02:16:15;;;;;;;6.32;3.22;;;;;;;12.52;95.34;100962.72;6217458;23;20004;-63
2022/10/16 02:18:43;;;;;;;7.90;3.35;;;;;;;12.52;95.25;100954.78;6217093;23;20008;-63
2022/10/16 02:21:18;;;;;;;4.85;3.08;;;;;;;12.51;95.37;100952.13;6217432;23;20005;-64
2022/10/16 02:23:56;;;;;;;6.38;3.40;;;;;;;12.51;95.31;100954.78;6217566;23;20347;-64
2022/10/16 02:26:43;;;;;;;7.68;3.28;;;;;;;12.50;95.22;100953.00;6217353;23;20008;-63
2022/10/16 02:29:14;;;;;;;5.10;3.10;;;;;;;12.47;95.19;100945.03;6217281;23;20386;-64
2022/10/16 02:31:45;;;;;;;5.88;3.00;;;;;;;12.46;94.83;100952.13;6217243;23;20442;-64
2022/10/16 02:34:12;;;;;;;6.18;3.00;;;;;;;12.44;95.13;100952.97;6217113;23;20004;-63
2022/10/16 02:36:39;;;;;;;4.18;2.70;;;;;;;12.44;95.18;100956.50;6217211;23;20001;-64
2022/10/16 02:39:06;;;;;;;5.15;2.85;;;;;;;12.40;95.42;100948.53;6217437;23;20016;-64
2022/10/16 02:41:32;;;;;;;4.57;2.67;;;;;;;12.41;95.74;100960.91;6217276;23;20008;-63
2022/10/16 02:43:58;;;;;;;5.47;2.70;;;;;;;12.39;95.26;100958.25;6217251;23;20473;-64
2022/10/16 02:46:23;;;;;;;4.45;2.92;;;;;;;12.38;95.68;100960.91;6216474;23;20083;-64
2022/10/16 02:48:48;;;;;;;5.30;3.10;;;;;;;12.36;95.44;100957.34;6217057;23;20087;-64
2022/10/16 02:51:14;;;;;;;6.10;3.20;;;;;;;12.35;95.86;100955.59;6217011;23;20481;-64
2022/10/16 02:53:39;;;;;;;5.80;2.97;;;;;;;12.31;96.03;100945.84;6216929;23;20414;-64
2022/10/16 02:56:05;;;;;;;4.28;3.15;;;;;;;12.28;95.68;100946.69;6217021;23;20001;-64
2022/10/16 02:58:30;;;;;;;6.15;3.15;;;;;;;12.28;96.32;100944.94;6217052;23;20031;-64
2022/10/16 03:00:56;;;;;;;5.78;2.88;;;;;;;12.27;96.27;100950.22;6215446;23;20012;-63
2022/10/16 03:03:21;;;;;;;5.15;3.10;;;;;;;12.26;96.03;100943.16;6215386;23;20016;-64
2022/10/16 03:05:47;;;;;;;5.90;3.05;;;;;;;12.23;95.98;100951.97;6216573;23;20066;-64
2022/10/16 03:08:13;;;;;;;5.85;3.08;;;;;;;12.19;96.27;100958.13;6217230;23;20012;-64
2022/10/16 03:10:38;;;;;;;4.22;2.72;;;;;;;12.19;96.67;100965.19;6216807;23;20334;-63
2022/10/16 03:13:03;;;;;;;5.43;2.90;;;;;;;12.16;96.83;100957.22;6190445;23;20386;-63
2022/10/16 03:15:29;;;;;;;12.15;3.13;;;;;;;12.16;96.57;100965.16;6216845;23;20012;-64
2022/10/16 03:17:55;;;;;;;7.22;2.80;;;;;;;12.15;97.02;100958.09;6216842;23;20367;-64
2022/10/16 03:20:20;;;;;;;3.35;2.60;;;;;;;12.15;97.02;100951.03;6216680;23;20437;-64
2022/10/16 03:22:45;;;;;;;4.72;2.70;;;;;;;12.15;97.03;100964.28;6217045;23;20009;-63
2022/10/16 03:25:11;;;;;;;5.05;2.80;;;;;;;12.14;97.30;100978.41;6216730;23;20316;-64
2022/10/16 03:27:36;;;;;;;7.22;2.80;;;;;;;12.14;96.90;100977.53;6216801;23;20011;-63
2022/10/16 03:30:02;;;;;;;6.15;2.80;;;;;;;12.12;97.16;100982.84;6216883;23;20001;-64
2022/10/16 03:32:28;;;;;;;7.78;2.60;;;;;;;12.14;96.92;100989.00;6216560;23;20012;-64
2022/10/16 03:34:54;;;;;;;5.65;2.63;;;;;;;12.16;97.17;100996.97;6216956;23;20004;-64
2022/10/16 03:37:19;;;;;;;6.38;2.70;;;;;;;12.13;97.18;100995.19;6216542;23;20372;-63
2022/10/16 03:39:45;;;;;;;7.95;2.88;;;;;;;12.14;97.35;100994.31;6215088;23;20009;-64
2022/10/16 03:42:10;;;;;;;5.00;2.92;;;;;;;12.12;97.33;100987.22;6190107;23;20009;-64
2022/10/16 03:44:36;;;;;;;6.03;2.75;;;;;;;12.11;97.35;100999.56;6216701;23;20008;-64
2022/10/16 03:47:01;;;;;;;5.85;2.78;;;;;;;12.13;97.55;101004.91;6216551;23;20004;-64
2022/10/16 03:49:26;;;;;;;5.80;2.72;;;;;;;12.13;97.39;101004.91;6217132;23;20473;-64
2022/10/16 03:51:52;;;;;;;8.25;3.10;;;;;;;12.13;97.43;101010.22;6217381;23;20015;-64
2022/10/16 03:54:17;;;;;;;5.38;3.10;;;;;;;12.13;97.63;101002.25;6216487;23;20095;-63
2022/10/16 03:56:42;;;;;;;8.80;3.15;;;;;;;12.11;97.72;101010.16;6216408;23;20366;-64
2022/10/16 03:59:08;;;;;;;5.82;3.10;;;;;;;12.09;98.04;101008.41;6216401;23;20049;-64
2022/10/16 04:01:33;;;;;;;5.38;3.00;;;;;;;12.07;97.92;100996.91;6216514;23;20012;-64
2022/10/16 04:03:59;;;;;;;9.50;3.22;;;;;;;12.08;98.04;101009.28;6190191;23;20063;-63
2022/10/16 04:06:24;;;;;;;5.35;3.15;;;;;;;12.08;98.08;101010.19;6216260;23;20039;-63
2022/10/16 04:08:49;;;;;;;5.07;2.80;;;;;;;12.10;97.89;101004.88;6216308;23;20339;-63
2022/10/16 04:11:15;;;;;;;3.83;2.80;;;;;;;12.10;97.89;101004.88;6216373;23;20077;-63
2022/10/16 04:13:41;;;;;;;7.75;3.05;;;;;;;12.09;97.87;101008.41;6216157;23;20330;-64
2022/10/16 04:16:06;;;;;;;7.22;3.05;;;;;;;12.08;98.00;101006.66;6216253;23;20374;-63
2022/10/16 04:18:32;;;;;;;6.10;3.35;;;;;;;12.07;97.83;101011.03;6189376;23;20008;-62
2022/10/16 04:21:02;;;;;;;5.13;2.90;;;;;;;12.08;98.04;101015.47;6216164;23;20066;-63
2022/10/16 04:23:27;;;;;;;6.28;2.95;;;;;;;12.08;98.35;101015.47;6216260;23;20583;-64
2022/10/16 04:25:53;;;;;;;7.40;2.80;;;;;;;12.07;98.62;101016.31;6216166;23;20418;-63
2022/10/16 04:28:18;;;;;;;8.38;2.90;;;;;;;12.09;98.40;101017.25;6216411;23;20013;-62
2022/10/16 04:30:44;;;;;;;6.18;2.90;;;;;;;12.09;98.77;101021.66;6216411;23;20004;-64
2022/10/16 04:33:09;;;;;;;5.45;2.80;;;;;;;12.11;98.49;101011.94;6215961;23;20371;-62
2022/10/16 04:35:35;;;;;;;7.20;2.70;;;;;;;12.14;98.33;101007.56;6216024;23;20011;-63
2022/10/16 04:38:00;;;;;;;5.72;2.80;;;;;;;12.13;98.68;101010.22;6216050;23;20004;-63
2022/10/16 04:40:26;;;;;;;7.13;2.78;;;;;;;12.17;98.65;101027.91;6215923;23;20036;-64
2022/10/16 04:42:51;;;;;;;4.40;2.70;;;;;;;12.17;98.87;101020.84;6215996;23;20004;-63
2022/10/16 04:45:17;;;;;;;5.43;2.72;;;;;;;12.18;98.73;101030.53;6189641;23;20009;-63
2022/10/16 04:47:42;;;;;;;3.40;2.65;;;;;;;12.18;98.56;101033.19;6215639;23;20442;-63
2022/10/16 04:50:08;;;;;;;5.05;2.47;;;;;;;12.18;98.43;101042.91;6215990;23;20019;-63
2022/10/16 04:52:33;;;;;;;5.20;2.63;;;;;;;12.19;98.46;101045.56;6216002;23;20009;-63
2022/10/16 04:55:01;;;;;;;5.07;2.80;;;;;;;12.17;98.73;101039.38;6216171;23;20004;-64
2022/10/16 04:57:27;;;;;;;6.13;2.70;;;;;;;12.16;98.44;101042.91;6215919;23;20001;-63
2022/10/16 04:59:53;;;;;;;7.30;2.70;;;;;;;12.17;98.63;101041.16;6215747;23;20012;-65
2022/10/16 05:02:18;;;;;;;6.40;2.90;;;;;;;12.14;98.84;101044.66;6215781;23;20083;-63
2022/10/16 05:04:43;;;;;;;9.05;2.80;;;;;;;12.14;98.93;101052.59;6189733;23;20087;-64
2022/10/16 05:07:09;;;;;;;6.18;2.75;;;;;;;12.14;98.95;101055.25;6215575;23;20465;-64
2022/10/16 05:09:34;;;;;;;6.13;2.78;;;;;;;12.13;99.12;101053.47;6189277;23;20331;-64
2022/10/16 05:12:00;;;;;;;5.90;2.78;;;;;;;12.13;98.93;101066.72;6215859;23;20008;-63
2022/10/16 05:14:25;;;;;;;6.57;2.90;;;;;;;12.12;99.31;101062.31;6215596;23;20012;-64
2022/10/16 05:16:51;;;;;;;8.73;3.03;;;;;;;12.10;99.29;101069.34;6215557;23;20008;-63
2022/10/16 05:19:16;;;;;;;5.00;2.92;;;;;;;12.10;99.66;101068.44;6215647;23;20009;-64
2022/10/16 05:21:42;;;;;;;5.03;2.97;;;;;;;12.09;99.54;101064.91;6215686;23;20036;-65
2022/10/16 05:24:09;;;;;;;4.95;3.03;;;;;;;12.09;99.90;101069.34;6215731;23;20496;-64
2022/10/16 05:26:34;;;;;;;5.50;2.80;;;;;;;12.05;99.64;101063.13;6215701;23;20326;-64
2022/10/16 05:29:00;;;;;;;5.72;3.00;;;;;;;12.06;99.91;101067.53;6215649;23;20076;-64
2022/10/16 05:31:26;;;;;;;6.63;2.92;;;;;;;12.04;100.00;101074.59;6215709;23;20009;-63
2022/10/16 05:33:51;;;;;;;7.22;3.03;;;;;;;12.02;100.00;101079.84;6215609;23;20427;-63
2022/10/16 05:36:18;;;;;;;9.15;3.03;;;;;;;12.05;100.00;101086.06;6215715;23;20091;-64
2022/10/16 05:38:43;;;;;;;9.45;3.38;;;;;;;12.00;100.00;101084.28;6215920;23;20020;-63
2022/10/16 05:41:09;;;;;;;6.78;3.40;;;;;;;12.03;100.00;101086.94;6215767;23;20004;-64
2022/10/16 05:43:34;;;;;;;6.43;3.33;;;;;;;12.02;100.00;101093.09;6215623;23;20012;-63
2022/10/16 05:46:05;;;;;;;8.60;3.50;;;;;;;12.02;100.00;101103.69;6215579;23;20059;-65
2022/10/16 05:48:31;;;;;;;7.80;3.63;;;;;;;12.00;100.00;101113.41;6215343;23;20012;-62
2022/10/16 05:51:01;;;;;;;10.27;3.50;;;;;;;12.00;100.00;101118.69;6215596;23;20004;-64
2022/10/16 05:53:28;;;;;;;8.20;3.53;;;;;;;12.00;100.00;101120.47;6215420;23;20027;-64
2022/10/16 05:55:55;;;;;;;6.22;3.50;;;;;;;11.99;100.00;101130.19;6215625;23;20131;-63
2022/10/16 05:58:21;;;;;;;7.43;3.58;;;;;;;11.99;100.00;101139.84;6215535;23;20004;-64
2022/10/16 06:00:57;;;;;;;7.60;3.70;;;;;;;11.99;100.00;101135.47;6215376;23;20442;-63
2022/10/16 06:03:22;;;;;;;9.93;3.80;;;;;;;12.00;100.00;101141.66;6188650;23;20114;-64
2022/10/16 06:05:48;;;;;;;7.13;3.90;;;;;;;11.97;100.00;101145.16;6215018;23;20017;-64
2022/10/16 06:08:13;;;;;;;7.05;3.63;;;;;;;11.97;100.00;101147.78;6215389;23;20063;-63
2022/10/16 06:10:38;;;;;;;6.28;3.55;;;;;;;11.98;100.00;101153.97;6215473;23;20296;-63
2022/10/16 06:13:04;;;;;;;10.32;3.47;;;;;;;12.00;100.00;101157.53;6188457;23;20083;-63
2022/10/16 06:15:29;;;;;;;5.47;3.47;;;;;;;11.97;100.00;101158.38;6214927;23;20011;-65
2022/10/16 06:17:54;;;;;;;6.57;3.60;;;;;;;11.96;100.00;101161.03;6214872;23;20546;-64
2022/10/16 06:20:20;;;;;;;7.03;3.92;;;;;;;11.95;100.00;101162.78;6215659;23;20008;-63
2022/10/16 06:22:45;;;;;;;7.97;3.88;;;;;;;11.94;100.00;101181.28;6216850;23;20435;-63
2022/10/16 06:25:10;;;;;;;8.73;3.40;;;;;;;11.93;100.00;101176.88;6216811;23;20008;-63
2022/10/16 06:27:38;;;;;;;6.50;3.33;;;;;;;11.93;100.00;101179.53;6217136;23;20078;-64
2022/10/16 06:30:04;;;;;;;9.80;3.75;;;;;;;11.91;100.00;101182.19;6216781;23;20005;-64
2022/10/16 06:32:30;;;;;;;12.15;3.60;;;;;;;11.91;100.00;101178.63;6216920;23;20088;-63
2022/10/16 06:34:55;;;;;;;9.27;3.67;;;;;;;11.90;100.00;101183.03;6215438;23;20425;-63
2022/10/16 06:37:21;;;;;;;5.85;3.75;;;;;;;11.90;100.00;101193.63;6216664;23;20478;-63
2022/10/16 06:39:47;;;;;;;9.18;3.55;;;;;;;11.87;100.00;101188.31;6216844;23;20005;-65
2022/10/16 06:42:12;;;;;;;10.07;4.03;;;;;;;11.92;100.00;101201.59;6190634;23;20066;-63
2022/10/16 06:44:38;;;;;;;7.47;3.63;;;;;;;12.00;100.00;101206.09;6216784;23;20031;-63
2022/10/16 06:47:03;;;;;;;6.07;3.53;;;;;;;12.10;100.00;101209.72;6216372;23;20012;-63
2022/10/16 06:49:28;;;;;;;7.47;3.70;;;;;;;12.23;100.00;101205.44;6216558;23;20005;-62
2022/10/16 06:51:54;;;;;;;6.32;3.60;;;;;;;12.35;100.00;101213.50;6216743;23;20036;-64
2022/10/16 06:54:19;;;;;;;6.03;3.50;;;;;;;12.45;100.00;101215.34;6216706;23;20454;-63
2022/10/16 06:56:45;;;;;;;7.25;3.58;;;;;;;12.56;100.00;101219.88;6217014;23;20019;-65
2022/10/16 06:59:10;;;;;;;5.05;3.25;;;;;;;12.71;99.97;101217.34;6217496;23;20422;-64
2022/10/16 07:01:35;;;;;;;6.25;3.45;;;;;;;12.79;99.02;101224.47;6216690;23;20423;-64
2022/10/16 07:04:02;;;;;;;7.45;3.63;;;;;;;12.92;98.53;101229.88;6216566;23;20039;-64
2022/10/16 07:06:31;;;;;;;8.05;3.10;;;;;;;13.06;98.30;101235.28;6216461;23;20020;-64
2022/10/16 07:08:57;;;;;;;9.60;3.38;;;;;;;13.15;97.26;101230.94;6216196;23;20350;-63
2022/10/16 07:11:23;;;;;;;6.72;3.22;;;;;;;13.22;96.78;101240.72;6216467;23;20004;-63
2022/10/16 07:13:50;;;;;;;8.27;3.30;;;;;;;13.28;96.11;101246.09;6216568;23;20028;-63
2022/10/16 07:16:18;;;;;;;7.43;3.20;;;;;;;13.34;95.35;101249.66;6216588;23;20044;-63
2022/10/16 07:18:46;;;;;;;6.30;3.05;;;;;;;13.36;94.95;101253.19;6216073;23;20009;-64
2022/10/16 07:21:22;;;;;;;7.78;3.13;;;;;;;13.45;94.86;101262.13;6216404;23;20012;-63
2022/10/16 07:23:56;;;;;;;6.95;3.15;;;;;;;13.55;94.32;101260.41;6216571;23;20011;-65
2022/10/16 07:26:22;;;;;;;7.82;3.30;;;;;;;13.64;94.08;101263.09;6216482;23;20082;-64
2022/10/16 07:28:48;;;;;;;7.45;3.00;;;;;;;13.73;93.77;101271.09;6216330;23;20012;-65
2022/10/16 07:31:14;;;;;;;7.38;3.00;;;;;;;13.87;93.56;101276.47;6216367;23;20012;-64
2022/10/16 07:33:43;;;;;;;7.32;3.10;;;;;;;14.04;92.70;101282.72;6216560;23;20026;-65
2022/10/16 07:36:08;;;;;;;4.80;2.70;;;;;;;14.19;91.81;101289.88;6215953;23;20499;-64
2022/10/16 07:38:34;;;;;;;6.57;2.50;;;;;;;14.37;91.41;101286.38;6216217;23;20011;-64
2022/10/16 07:41:02;;;;;;;3.88;2.58;;;;;;;14.52;89.53;101293.53;6216200;23;20311;-63
2022/10/16 07:43:28;;;;;;;4.57;2.35;;;;;;;14.69;89.33;101290.91;6216139;23;20005;-64
2022/10/16 07:45:54;;;;;;;5.88;2.60;;;;;;;14.84;88.14;101295.34;6216046;23;20081;-64
2022/10/16 07:48:21;;;;;;;4.82;2.30;;;;;;;15.06;87.54;101307.75;6215715;23;20084;-64
2022/10/16 07:50:46;;;;;;;8.15;2.55;;;;;;;15.21;86.75;101313.09;6189444;23;20395;-65
2022/10/16 07:53:12;;;;;;;7.82;2.53;;;;;;;15.39;85.61;101322.81;6216171;23;20008;-64
2022/10/16 07:55:37;;;;;;;5.65;2.33;;;;;;;15.56;85.04;101320.13;6216050;23;20015;-64
2022/10/16 07:58:03;;;;;;;7.38;2.70;;;;;;;15.73;85.05;101326.34;6215863;23;20020;-65
2022/10/16 08:00:28;;;;;;;5.57;2.38;;;;;;;15.89;83.38;101332.50;6215949;23;20012;-64
2022/10/16 08:02:54;;;;;;;5.57;2.80;;;;;;;15.99;81.65;101320.03;6215938;23;20091;-64
2022/10/16 08:05:19;;;;;;;6.22;2.50;;;;;;;16.05;81.09;101333.31;6215805;23;20362;-65
2022/10/16 08:07:51;;;;;;;7.00;2.40;;;;;;;16.13;80.84;101328.84;6215916;23;20316;-63
2022/10/16 08:10:21;;;;;;;7.03;2.40;;;;;;;16.20;80.00;101337.72;6216006;23;20005;-64
2022/10/16 08:12:47;;;;;;;7.95;2.55;;;;;;;16.41;80.84;101336.72;6215848;23;20430;-65
2022/10/16 08:15:12;;;;;;;7.95;2.33;;;;;;;16.63;80.02;101343.72;6215855;23;20012;-64
2022/10/16 08:17:37;;;;;;;4.75;2.30;;;;;;;16.91;78.15;101344.41;6189039;23;20009;-63
2022/10/16 08:20:03;;;;;;;5.18;2.40;;;;;;;17.05;76.92;101352.34;6215649;23;20008;-65
2022/10/16 08:22:28;;;;;;;7.45;2.40;;;;;;;17.17;76.17;101346.91;6215701;23;20019;-64
2022/10/16 08:24:54;;;;;;;3.55;2.20;;;;;;;17.41;74.69;101360.94;6215568;23;20004;-63
2022/10/16 08:27:19;;;;;;;5.72;2.35;;;;;;;17.62;74.62;101357.19;6215855;23;20046;-65
2022/10/16 08:29:44;;;;;;;6.13;2.38;;;;;;;17.81;73.53;101365.91;6215555;23;20060;-64
2022/10/16 08:32:10;;;;;;;6.07;2.42;;;;;;;18.00;73.17;101376.41;6216088;23;20409;-64
2022/10/16 08:34:35;;;;;;;4.97;2.40;;;;;;;18.02;71.33;101366.56;6215402;23;20383;-64
2022/10/16 08:37:01;;;;;;;6.88;2.45;;;;;;;18.08;71.36;101370.09;6215568;23;20009;-64
2022/10/16 08:39:26;;;;;;;7.80;2.40;;;;;;;18.31;71.53;101372.47;6189423;23;20008;-64
2022/10/16 08:42:22;;;;;;;5.50;2.60;;;;;;;18.53;72.51;101377.50;6215456;23;20028;-64
2022/10/16 08:45:06;;;;;;;5.93;2.45;;;;;;;18.68;69.54;101381.78;6215256;23;20075;-64
2022/10/16 08:47:50;;;;;;;6.05;2.35;;;;;;;18.70;69.90;101388.00;6215177;23;20008;-64
2022/10/16 08:50:25;;;;;;;8.13;2.40;;;;;;;18.85;69.39;101388.72;6215784;23;20334;-63
2022/10/16 08:52:50;;;;;;;7.75;2.35;;;;;;;18.83;68.41;101387.84;6215707;23;20008;-64
2022/10/16 08:55:37;;;;;;;8.45;2.40;;;;;;;18.91;69.44;101392.19;6215433;23;20495;-65
2022/10/16 08:58:11;;;;;;;7.43;2.60;;;;;;;19.24;69.29;101388.09;6215858;23;20000;-64
2022/10/16 09:00:38;;;;;;;4.93;2.50;;;;;;;19.31;66.70;101391.53;6215285;23;20039;-64
2022/10/16 09:03:17;;;;;;;4.90;2.10;;;;;;;19.58;67.85;101392.00;6215292;23;20062;-64
2022/10/16 09:06:06;;;;;;;7.25;2.45;;;;;;;20.07;66.09;101399.16;6215071;23;20013;-65
2022/10/16 09:09:00;;;;;;;5.00;2.10;;;;;;;20.35;65.01;101404.88;6215161;23;20435;-64
2022/10/16 09:11:31;;;;;;;7.47;2.40;;;;;;;20.50;62.65;101401.88;6213742;23;20339;-64
2022/10/16 09:14:12;;;;;;;6.28;2.30;;;;;;;20.56;63.92;101406.25;6215180;23;20011;-63
2022/10/16 09:16:46;;;;;;;6.18;2.40;;;;;;;20.60;61.66;101415.97;6215210;23;20052;-64
2022/10/16 09:19:35;;;;;;;5.85;2.30;;;;;;;20.65;61.64;101417.66;6214935;23;20118;-63
2022/10/16 09:22:12;;;;;;;6.88;2.40;;;;;;;20.75;60.98;101418.34;6215317;23;20031;-64
2022/10/16 09:24:38;;;;;;;6.20;2.33;;;;;;;21.06;59.73;101417.63;6189750;23;20015;-64
2022/10/16 09:27:03;;;;;;;11.90;2.35;;;;;;;21.33;59.17;101418.81;6215618;23;20005;-64
2022/10/16 09:29:29;;;;;;;7.45;2.45;;;;;;;21.49;57.72;101415.69;6215107;23;20437;-65
2022/10/16 09:31:57;;;;;;;7.57;2.30;;;;;;;21.69;56.17;101425.94;6215549;23;20379;-64
2022/10/16 09:34:51;;;;;;;5.75;2.40;;;;;;;21.90;59.25;101423.63;6215353;23;20080;-64
2022/10/16 09:37:22;;;;;;;8.00;2.35;;;;;;;22.08;56.88;101425.78;6203512;23;20015;-64
2022/10/16 09:39:52;;;;;;;6.05;2.40;;;;;;;21.99;54.80;101420.66;6214966;23;20055;-63
2022/10/16 09:42:25;;;;;;;9.07;2.25;;;;;;;21.76;55.55;101413.22;6215551;23;20009;-64
2022/10/16 09:44:53;;;;;;;9.13;2.35;;;;;;;21.70;55.41;101429.50;6215270;23;20423;-63
2022/10/16 09:47:22;;;;;;;8.18;2.10;;;;;;;21.65;55.94;101429.63;6214906;23;20040;-63
2022/10/16 09:50:01;;;;;;;8.13;2.50;;;;;;;21.33;56.32;101424.19;6215011;23;20005;-64
2022/10/16 09:52:27;;;;;;;12.20;2.72;;;;;;;20.98;56.43;101423.19;6215275;23;20008;-63
2022/10/16 09:54:58;;;;;;;10.55;2.75;;;;;;;20.53;57.69;101435.84;6215784;23;20004;-64
2022/10/16 09:57:24;;;;;;;9.32;2.70;;;;;;;20.42;58.72;101438.69;6217306;23;20091;-64
2022/10/16 09:59:55;;;;;;;8.35;2.30;;;;;;;20.44;58.83;101436.88;6217047;23;20171;-64
2022/10/16 10:02:30;;;;;;;15.73;2.55;;;;;;;20.13;59.31;101442.88;6190354;23;20004;-64
2022/10/16 10:04:56;;;;;;;12.82;2.83;;;;;;;19.87;59.40;101442.44;6217161;23;20012;-64
2022/10/16 10:07:27;;;;;;;10.80;2.60;;;;;;;19.66;59.94;101439.25;6216876;23;20021;-64
2022/10/16 10:09:56;;;;;;;9.38;2.42;;;;;;;19.83;60.08;101436.28;6217420;23;20054;-64
2022/10/16 10:12:27;;;;;;;9.43;2.80;;;;;;;20.19;59.23;101437.34;6218139;23;20001;-64
2022/10/16 10:14:56;;;;;;;7.65;2.40;;;;;;;20.29;58.45;101440.75;6218223;23;20004;-64
2022/10/16 10:17:24;;;;;;;10.18;2.55;;;;;;;20.67;57.61;101437.28;6217075;23;20135;-63
2022/10/16 10:19:54;;;;;;;12.27;2.90;;;;;;;20.81;56.98;101449.53;6216779;23;20308;-63
2022/10/16 10:22:38;;;;;;;7.93;2.60;;;;;;;20.38;58.37;101450.41;6215355;23;20009;-63
2022/10/16 10:25:13;;;;;;;11.90;2.92;;;;;;;20.17;59.51;101447.25;6216970;23;20015;-63
2022/10/16 10:27:57;;;;;;;8.07;2.60;;;;;;;20.09;60.88;101456.38;6216774;23;20427;-63
2022/10/16 10:30:27;;;;;;;10.18;2.40;;;;;;;20.18;57.68;101458.88;6216765;23;20012;-63
2022/10/16 10:33:03;;;;;;;13.02;2.90;;;;;;;20.02;59.01;101459.16;6216558;23;20004;-63
2022/10/16 10:35:36;;;;;;;11.02;2.97;;;;;;;20.12;60.72;101473.25;6216744;23;20154;-64
2022/10/16 10:38:15;;;;;;;16.20;2.50;;;;;;;20.45;58.98;101473.53;6216978;23;20013;-63
2022/10/16 10:41:06;;;;;;;12.35;2.90;;;;;;;20.73;57.21;101458.66;6216924;23;20330;-63
2022/10/16 10:44:05;;;;;;;11.57;2.70;;;;;;;20.83;58.65;101463.84;6210792;23;20009;-64
2022/10/16 10:46:33;;;;;;;16.63;3.00;;;;;;;20.98;56.52;101464.38;6216659;23;20032;-64
2022/10/16 10:49:22;;;;;;;9.57;2.60;;;;;;;21.18;57.21;101466.59;6216344;23;20012;-64
2022/10/16 10:52:10;;;;;;;11.48;2.85;;;;;;;21.37;53.96;101467.09;6216956;23;20070;-63
2022/10/16 10:54:47;;;;;;;9.85;2.50;;;;;;;21.15;55.58;101455.91;6216590;23;20005;-63
2022/10/16 10:57:26;;;;;;;13.63;2.95;;;;;;;21.19;55.30;101470.16;6216570;23;20023;-64
2022/10/16 11:00:02;;;;;;;16.33;2.70;;;;;;;21.07;54.30;101468.66;6216464;23;20009;-64
2022/10/16 11:02:46;;;;;;;11.63;2.30;;;;;;;21.02;55.98;101473.25;6216642;23;20038;-63
2022/10/16 11:05:48;;;;;;;12.88;2.85;;;;;;;21.17;55.71;101474.72;6216505;23;20009;-64
2022/10/16 11:08:26;;;;;;;;;;;;;;;21.47;57.85;101471.31;6216838;23;20066;-63
2022/10/16 11:10:57;;;;;;;9.88;2.60;;;;;;;21.70;53.24;101473.44;6214964;23;19954;-63
2022/10/16 11:14:04;;;;;;;11.10;2.87;;;;;;;22.08;53.59;101473.34;6216474;23;20080;-63
2022/10/16 11:16:31;;;;;;;11.80;2.80;;;;;;;21.92;51.83;101470.19;6066586;23;20074;-63
2022/10/16 11:19:12;;;;;;;8.68;2.50;;;;;;;22.16;52.10;101477.66;6066460;23;20073;-63
2022/10/16 11:21:48;;;;;;;13.63;3.10;;;;;;;22.46;49.27;101472.34;6156837;23;20311;-63
2022/10/16 11:24:21;;;;;;;12.90;2.65;;;;;;;22.51;48.30;101475.78;6189569;23;20021;-63
2022/10/16 11:26:49;;;;;;;12.25;3.30;;;;;;;22.46;49.13;101473.22;6216373;23;20491;-64
2022/10/16 11:29:22;;;;;;;10.63;3.13;;;;;;;22.37;49.12;101468.09;6216370;23;20438;-64
2022/10/16 11:31:55;;;;;;;12.60;2.90;;;;;;;22.08;48.67;101474.25;6216680;23;20011;-64
2022/10/16 11:34:21;;;;;;;11.07;2.83;;;;;;;21.87;49.25;101472.13;6216497;23;20088;-64